Time,TemperatureF,DewpointF,PressureIn,WindDirection,WindDirectionDegrees,WindSpeedMPH,WindSpeedGustMPH,Humidity,HourlyPrecipIn,Conditions,Clouds,dailyrainin,SoftwareType,DateUTC
2013-05-05 00:07:00,56.7,43.0,30.15,East,89,0.0,-999.0,60,-99.99,,,0.00,weatherlink.com 1.10,2013-05-05 04:07:00,
2013-05-05 00:22:00,56.3,43.0,30.15,East,89,0.0,-999.0,61,-99.99,,,0.00,weatherlink.com 1.10,2013-05-05 04:22:00,
2013-05-05 00:37:00,56.1,43.0,30.15,East,88,0.0,-999.0,61,-99.99,,,0.00,weatherlink.com 1.10,2013-05-05 04:37:00,
2013-05-05 00:52:00,56.0,43.0,30.15,East,88,0.0,-999.0,61,-99.99,,,0.00,weatherlink.com 1.10,2013-05-05 04:52:00,
2013-05-05 01:07:00,54.9,43.0,30.15,East,88,0.0,-999.0,64,-99.99,,,0.00,weatherlink.com 1.10,2013-05-05 05:07:00,
2013-05-05 01:22:00,54.4,42.0,30.14,East,88,0.0,-999.0,64,-99.99,,,0.00,weatherlink.com 1.10,2013-05-05 05:22:00,
2013-05-05 01:37:00,54.1,42.0,30.14,East,88,0.0,-999.0,65,-99.99,,,0.00,weatherlink.com 1.10,2013-05-05 05:37:00,
2013-05-05 01:52:00,53.6,42.0,30.14,East,88,0.0,-999.0,65,-99.99,,,0.00,weatherlink.com 1.10,2013-05-05 05:52:00,
2013-05-05 02:07:00,53.5,42.0,30.14,East,88,0.0,-999.0,65,-99.99,,,0.00,weatherlink.com 1.10,2013-05-05 06:07:00,
2013-05-05 02:22:00,53.7,42.0,30.14,East,88,0.0,-999.0,66,-99.99,,,0.00,weatherlink.com 1.10,2013-05-05 06:22:00,
2013-05-05 02:37:00,53.8,43.0,30.13,East,88,0.0,-999.0,66,-99.99,,,0.00,weatherlink.com 1.10,2013-05-05 06:37:00,
2013-05-05 02:52:00,53.1,43.0,30.13,East,89,0.0,-999.0,69,-99.99,,,0.00,weatherlink.com 1.10,2013-05-05 06:52:00,
2013-05-05 03:07:00,52.2,43.0,30.13,East,89,0.0,-999.0,71,-99.99,,,0.00,weatherlink.com 1.10,2013-05-05 07:07:00,
2013-05-05 03:21:00,51.4,43.0,30.13,East,88,0.0,-999.0,73,-99.99,,,0.00,weatherlink.com 1.10,2013-05-05 07:21:00,
2013-05-05 03:37:00,50.9,43.0,30.13,East,88,0.0,-999.0,74,-99.99,,,0.00,weatherlink.com 1.10,2013-05-05 07:37:00,
2013-05-05 03:52:00,50.9,44.0,30.13,ESE,117,0.0,-999.0,76,-99.99,,,0.00,weatherlink.com 1.10,2013-05-05 07:52:00,
2013-05-05 04:07:00,51.0,42.0,30.13,SSW,203,0.0,-999.0,72,-99.99,,,0.00,weatherlink.com 1.10,2013-05-05 08:07:00,
2013-05-05 04:22:00,51.3,42.0,30.13,SW,220,0.0,-999.0,71,-99.99,,,0.00,weatherlink.com 1.10,2013-05-05 08:22:00,
2013-05-05 04:37:00,51.4,42.0,30.13,South,175,0.0,-999.0,70,-99.99,,,0.00,weatherlink.com 1.10,2013-05-05 08:37:00,
2013-05-05 04:52:00,51.2,42.0,30.14,South,177,0.0,-999.0,71,-99.99,,,0.00,weatherlink.com 1.10,2013-05-05 08:52:00,
2013-05-05 05:07:00,50.6,42.0,30.13,South,177,0.0,-999.0,72,-99.99,,,0.00,weatherlink.com 1.10,2013-05-05 09:07:00,
2013-05-05 05:22:00,50.1,42.0,30.14,South,177,0.0,-999.0,73,-99.99,,,0.00,weatherlink.com 1.10,2013-05-05 09:22:00,
2013-05-05 05:37:00,49.9,42.0,30.14,South,177,0.0,-999.0,73,-99.99,,,0.00,weatherlink.com 1.10,2013-05-05 09:37:00,
2013-05-05 05:52:00,49.2,42.0,30.14,South,176,0.0,-999.0,76,-99.99,,,0.00,weatherlink.com 1.10,2013-05-05 09:52:00,
2013-05-05 06:07:00,48.8,42.0,30.15,South,177,0.0,-999.0,76,-99.99,,,0.00,weatherlink.com 1.10,2013-05-05 10:07:00,
2013-05-05 06:22:00,48.5,42.0,30.15,South,177,0.0,-999.0,78,-99.99,,,0.00,weatherlink.com 1.10,2013-05-05 10:22:00,
2013-05-05 06:37:00,48.3,42.0,30.16,South,177,0.0,-999.0,79,-99.99,,,0.00,weatherlink.com 1.10,2013-05-05 10:37:00,
2013-05-05 06:52:00,48.6,42.0,30.16,South,177,0.0,-999.0,79,-99.99,,,0.00,weatherlink.com 1.10,2013-05-05 10:52:00,
2013-05-05 07:07:00,49.4,43.0,30.16,South,176,0.0,-999.0,78,-99.99,,,0.00,weatherlink.com 1.10,2013-05-05 11:07:00,
2013-05-05 07:21:00,50.0,43.0,30.17,South,170,0.0,-999.0,78,-99.99,,,0.00,weatherlink.com 1.10,2013-05-05 11:21:00,
2013-05-05 07:37:00,51.7,44.0,30.17,West,259,2.0,-999.0,75,-99.99,,,0.00,weatherlink.com 1.10,2013-05-05 11:37:00,
2013-05-05 07:52:00,54.4,45.0,30.17,WSW,246,0.0,-999.0,71,-99.99,,,0.00,weatherlink.com 1.10,2013-05-05 11:52:00,
2013-05-05 08:07:00,57.0,46.0,30.17,West,263,1.0,-999.0,67,-99.99,,,0.00,weatherlink.com 1.10,2013-05-05 12:07:00,
2013-05-05 08:22:00,59.0,46.0,30.18,WSW,254,0.0,-999.0,63,-99.99,,,0.00,weatherlink.com 1.10,2013-05-05 12:22:00,
2013-05-05 08:37:00,61.6,47.0,30.18,WNW,295,0.0,-999.0,59,-99.99,,,0.00,weatherlink.com 1.10,2013-05-05 12:37:00,
2013-05-05 08:52:00,64.4,48.0,30.18,NW,315,1.0,-999.0,55,-99.99,,,0.00,weatherlink.com 1.10,2013-05-05 12:52:00,
2013-05-05 09:07:00,66.3,47.0,30.18,NNW,348,0.0,-999.0,50,-99.99,,,0.00,weatherlink.com 1.10,2013-05-05 13:07:00,
2013-05-05 09:22:00,67.9,48.0,30.18,West,259,0.0,-999.0,49,-99.99,,,0.00,weatherlink.com 1.10,2013-05-05 13:22:00,
2013-05-05 09:37:00,68.5,47.0,30.18,WSW,249,1.0,-999.0,47,-99.99,,,0.00,weatherlink.com 1.10,2013-05-05 13:37:00,
2013-05-05 09:52:00,68.0,47.0,30.17,WSW,241,0.0,-999.0,47,-99.99,,,0.00,weatherlink.com 1.10,2013-05-05 13:52:00,
2013-05-05 10:07:00,69.5,47.0,30.17,North,355,1.0,-999.0,44,-99.99,,,0.00,weatherlink.com 1.10,2013-05-05 14:07:00,
2013-05-05 10:22:00,70.4,48.0,30.17,North,360,0.0,-999.0,45,-99.99,,,0.00,weatherlink.com 1.10,2013-05-05 14:22:00,
2013-05-05 10:37:00,70.5,47.0,30.17,SE,130,0.0,-999.0,44,-99.99,,,0.00,weatherlink.com 1.10,2013-05-05 14:37:00,
2013-05-05 10:52:00,70.4,47.0,30.17,SE,134,0.0,-999.0,44,-99.99,,,0.00,weatherlink.com 1.10,2013-05-05 14:52:00,
2013-05-05 11:07:00,73.1,49.0,30.16,NNE,18,0.0,-999.0,42,-99.99,,,0.00,weatherlink.com 1.10,2013-05-05 15:07:00,
2013-05-05 11:21:00,72.1,48.0,30.16,South,177,0.0,-999.0,43,-99.99,,,0.00,weatherlink.com 1.10,2013-05-05 15:21:00,
2013-05-05 11:37:00,72.7,47.0,30.16,East,87,0.0,-999.0,40,-99.99,,,0.00,weatherlink.com 1.10,2013-05-05 15:37:00,
2013-05-05 11:52:00,72.8,48.0,30.16,East,101,3.0,-999.0,42,-99.99,,,0.00,weatherlink.com 1.10,2013-05-05 15:52:00,
2013-05-05 12:07:00,74.5,48.0,30.15,ESE,117,0.0,-999.0,39,-99.99,,,0.00,weatherlink.com 1.10,2013-05-05 16:07:00,
2013-05-05 12:22:00,73.8,46.0,30.15,ESE,106,1.0,-999.0,37,-99.99,,,0.00,weatherlink.com 1.10,2013-05-05 16:22:00,
2013-05-05 12:37:00,75.2,47.0,30.14,NE,34,3.0,-999.0,37,-99.99,,,0.00,weatherlink.com 1.10,2013-05-05 16:37:00,
2013-05-05 12:52:00,76.3,48.0,30.13,ESE,105,3.0,-999.0,37,-99.99,,,0.00,weatherlink.com 1.10,2013-05-05 16:52:00,
2013-05-05 13:07:00,74.6,48.0,30.13,ENE,69,0.0,-999.0,39,-99.99,,,0.00,weatherlink.com 1.10,2013-05-05 17:07:00,
2013-05-05 13:22:00,75.4,49.0,30.12,SSW,207,0.0,-999.0,39,-99.99,,,0.00,weatherlink.com 1.10,2013-05-05 17:22:00,
2013-05-05 13:37:00,75.1,47.0,30.11,East,92,1.0,-999.0,37,-99.99,,,0.00,weatherlink.com 1.10,2013-05-05 17:37:00,
2013-05-05 13:52:00,75.5,47.0,30.11,ESE,111,2.0,-999.0,37,-99.99,,,0.00,weatherlink.com 1.10,2013-05-05 17:52:00,
2013-05-05 14:07:00,75.4,45.0,30.10,ESE,115,0.0,-999.0,34,-99.99,,,0.00,weatherlink.com 1.10,2013-05-05 18:07:00,
2013-05-05 14:22:00,77.0,45.0,30.10,East,98,1.0,-999.0,32,-99.99,,,0.00,weatherlink.com 1.10,2013-05-05 18:22:00,
2013-05-05 14:52:00,77.5,45.0,30.09,NE,49,0.0,-999.0,31,-99.99,,,0.00,weatherlink.com 1.10,2013-05-05 18:52:00,
2013-05-05 15:07:00,77.5,45.0,30.08,NE,40,1.0,-999.0,31,-99.99,,,0.00,weatherlink.com 1.10,2013-05-05 19:07:00,
2013-05-05 15:22:00,76.8,44.0,30.08,East,82,2.0,-999.0,31,-99.99,,,0.00,weatherlink.com 1.10,2013-05-05 19:22:00,
2013-05-05 15:37:00,77.1,45.0,30.08,NNE,17,6.0,-999.0,32,-99.99,,,0.00,weatherlink.com 1.10,2013-05-05 19:37:00,
2013-05-05 15:52:00,77.4,45.0,30.07,East,95,2.0,-999.0,32,-99.99,,,0.00,weatherlink.com 1.10,2013-05-05 19:52:00,
2013-05-05 16:07:00,76.8,46.0,30.07,East,82,2.0,-999.0,33,-99.99,,,0.00,weatherlink.com 1.10,2013-05-05 20:07:00,
2013-05-05 16:22:00,76.2,44.0,30.07,ENE,76,1.0,-999.0,32,-99.99,,,0.00,weatherlink.com 1.10,2013-05-05 20:22:00,
2013-05-05 16:37:00,76.0,45.0,30.06,East,91,0.0,-999.0,33,-99.99,,,0.00,weatherlink.com 1.10,2013-05-05 20:37:00,
2013-05-05 16:52:00,76.5,44.0,30.06,ENE,69,4.0,-999.0,32,-99.99,,,0.00,weatherlink.com 1.10,2013-05-05 20:52:00,
2013-05-05 17:07:00,76.6,44.0,30.06,NE,40,3.0,-999.0,31,-99.99,,,0.00,weatherlink.com 1.10,2013-05-05 21:07:00,
2013-05-05 17:22:00,76.1,44.0,30.06,NNE,18,3.0,-999.0,32,-99.99,,,0.00,weatherlink.com 1.10,2013-05-05 21:22:00,
2013-05-05 17:37:00,75.4,43.0,30.05,ENE,65,2.0,-999.0,32,-99.99,,,0.00,weatherlink.com 1.10,2013-05-05 21:37:00,
2013-05-05 17:52:00,75.5,43.0,30.05,East,94,0.0,-999.0,31,-99.99,,,0.00,weatherlink.com 1.10,2013-05-05 21:52:00,
2013-05-05 18:07:00,75.6,42.0,30.05,East,86,0.0,-999.0,30,-99.99,,,0.00,weatherlink.com 1.10,2013-05-05 22:07:00,
2013-05-05 18:22:00,75.1,42.0,30.05,ENE,75,0.0,-999.0,30,-99.99,,,0.00,weatherlink.com 1.10,2013-05-05 22:22:00,
2013-05-05 18:37:00,74.6,41.0,30.05,ESE,119,0.0,-999.0,30,-99.99,,,0.00,weatherlink.com 1.10,2013-05-05 22:37:00,
2013-05-05 18:52:00,74.2,42.0,30.05,East,90,4.0,-999.0,31,-99.99,,,0.00,weatherlink.com 1.10,2013-05-05 22:52:00,
2013-05-05 19:07:00,73.1,41.0,30.05,ENE,67,1.0,-999.0,32,-99.99,,,0.00,weatherlink.com 1.10,2013-05-05 23:07:00,
2013-05-05 19:21:00,72.4,42.0,30.05,East,92,1.0,-999.0,33,-99.99,,,0.00,weatherlink.com 1.10,2013-05-05 23:21:00,
2013-05-05 19:37:00,71.7,42.0,30.05,East,87,1.0,-999.0,34,-99.99,,,0.00,weatherlink.com 1.10,2013-05-05 23:37:00,
2013-05-05 19:52:00,71.2,42.0,30.05,East,88,1.0,-999.0,35,-99.99,,,0.00,weatherlink.com 1.10,2013-05-05 23:52:00,
2013-05-05 20:07:00,70.5,44.0,30.06,NNW,344,0.0,-999.0,39,-99.99,,,0.00,weatherlink.com 1.10,2013-05-06 00:07:00,
2013-05-05 20:22:00,68.8,45.0,30.06,NNE,22,0.0,-999.0,43,-99.99,,,0.00,weatherlink.com 1.10,2013-05-06 00:22:00,
2013-05-05 20:37:00,67.0,45.0,30.07,NNE,22,0.0,-999.0,46,-99.99,,,0.00,weatherlink.com 1.10,2013-05-06 00:37:00,
2013-05-05 20:52:00,65.9,45.0,30.07,NNE,22,0.0,-999.0,47,-99.99,,,0.00,weatherlink.com 1.10,2013-05-06 00:52:00,
2013-05-05 21:07:00,64.7,45.0,30.07,NNE,21,0.0,-999.0,50,-99.99,,,0.00,weatherlink.com 1.10,2013-05-06 01:07:00,
2013-05-05 21:22:00,63.7,45.0,30.08,NNE,22,0.0,-999.0,51,-99.99,,,0.00,weatherlink.com 1.10,2013-05-06 01:22:00,
2013-05-05 21:37:00,62.8,45.0,30.08,NNE,22,0.0,-999.0,53,-99.99,,,0.00,weatherlink.com 1.10,2013-05-06 01:37:00,
2013-05-05 21:52:00,61.8,45.0,30.08,East,101,0.0,-999.0,54,-99.99,,,0.00,weatherlink.com 1.10,2013-05-06 01:52:00,
2013-05-05 22:07:00,61.1,45.0,30.08,East,101,0.0,-999.0,56,-99.99,,,0.00,weatherlink.com 1.10,2013-05-06 02:07:00,
2013-05-05 22:22:00,60.2,45.0,30.08,East,101,0.0,-999.0,57,-99.99,,,0.00,weatherlink.com 1.10,2013-05-06 02:22:00,
2013-05-05 22:37:00,59.7,45.0,30.09,East,101,0.0,-999.0,58,-99.99,,,0.00,weatherlink.com 1.10,2013-05-06 02:37:00,
2013-05-05 22:52:00,59.3,45.0,30.09,East,101,0.0,-999.0,59,-99.99,,,0.00,weatherlink.com 1.10,2013-05-06 02:52:00,
2013-05-05 23:07:00,59.0,45.0,30.09,SE,124,0.0,-999.0,60,-99.99,,,0.00,weatherlink.com 1.10,2013-05-06 03:07:00,
2013-05-05 23:21:00,59.0,44.0,30.08,SE,128,0.0,-999.0,59,-99.99,,,0.00,weatherlink.com 1.10,2013-05-06 03:21:00,
2013-05-05 23:37:00,59.0,44.0,30.09,ESE,123,0.0,-999.0,58,-99.99,,,0.00,weatherlink.com 1.10,2013-05-06 03:37:00,
2013-05-05 23:52:00,59.3,44.0,30.08,ESE,113,0.0,-999.0,57,-99.99,,,0.00,weatherlink.com 1.10,2013-05-06 03:52:00,